createdAt,value
2023-05-15T00:01:59.740Z,67.36
2023-05-15T00:04:27.053Z,68.22
2023-05-15T00:06:53.933Z,68.93
2023-05-15T00:09:23.098Z,69.56
2023-05-15T00:11:49.996Z,69.85
2023-05-15T00:14:16.663Z,70.44
2023-05-15T00:16:43.487Z,70.78
2023-05-15T00:19:10.604Z,70.99
2023-05-15T00:21:37.541Z,71.32
2023-05-15T00:24:04.314Z,71.92
2023-05-15T00:26:31.067Z,72.53
2023-05-15T00:28:57.774Z,73.12
2023-05-15T00:31:24.531Z,73.52
2023-05-15T00:33:51.778Z,73.96
2023-05-15T00:36:18.481Z,74.66
2023-05-15T00:38:45.171Z,75.55
2023-05-15T00:41:11.949Z,76.21
2023-05-15T00:43:39.182Z,76.77
2023-05-15T00:46:06.982Z,77.32
2023-05-15T00:48:33.769Z,77.99
2023-05-15T00:51:00.621Z,78.61
2023-05-15T00:53:27.956Z,79.20
2023-05-15T00:55:56.609Z,79.84
2023-05-15T00:58:23.651Z,80.32
2023-05-15T01:00:50.971Z,80.62
2023-05-15T01:03:17.866Z,80.88
2023-05-15T01:05:45.140Z,80.99
2023-05-15T01:08:30.455Z,81.35
2023-05-15T01:10:57.127Z,81.75
2023-05-15T01:13:25.371Z,82.32
2023-05-15T01:15:52.057Z,82.86
2023-05-15T01:18:20.188Z,83.35
2023-05-15T01:21:04.966Z,84.02
2023-05-15T01:23:56.660Z,84.82
2023-05-15T01:26:28.990Z,85.61
2023-05-15T01:29:01.622Z,86.06
2023-05-15T01:31:28.978Z,86.50
2023-05-15T01:33:56.392Z,86.70
2023-05-15T01:36:45.032Z,86.92
2023-05-15T01:39:11.694Z,87.13
2023-05-15T01:41:58.640Z,87.71
2023-05-15T01:44:29.351Z,88.22
2023-05-15T01:46:58.055Z,88.76
2023-05-15T01:49:28.655Z,89.16
2023-05-15T01:51:59.837Z,89.42
2023-05-15T01:54:26.717Z,89.81
2023-05-15T01:56:53.422Z,90.29
2023-05-15T01:59:20.248Z,90.95
2023-05-15T02:01:47.019Z,91.09
2023-05-15T02:04:13.878Z,91.30
2023-05-15T02:06:40.878Z,91.63
2023-05-15T02:09:08.569Z,92.00
2023-05-15T02:11:35.499Z,92.18
2023-05-15T02:14:03.374Z,92.35
2023-05-15T02:16:30.102Z,92.62
2023-05-15T02:18:57.013Z,93.15
2023-05-15T02:21:23.781Z,93.32
2023-05-15T02:23:51.044Z,93.54
2023-05-15T02:26:33.125Z,93.69
2023-05-15T02:29:21.996Z,93.90
2023-05-15T02:32:10.387Z,94.05
2023-05-15T02:35:01.810Z,94.28
2023-05-15T02:37:30.861Z,94.40
2023-05-15T02:39:59.743Z,94.44
2023-05-15T02:42:26.921Z,94.43
2023-05-15T02:44:54.326Z,94.43
2023-05-15T02:47:21.932Z,94.24
2023-05-15T02:49:48.922Z,94.15
2023-05-15T02:52:15.619Z,94.13
2023-05-15T02:54:42.457Z,94.04
2023-05-15T02:57:09.231Z,93.77
2023-05-15T02:59:36.253Z,93.39
2023-05-15T03:02:03.699Z,92.73
2023-05-15T03:04:31.037Z,92.10
2023-05-15T03:06:57.858Z,91.21
2023-05-15T03:09:25.462Z,90.75
2023-05-15T03:11:52.280Z,90.14
2023-05-15T03:14:19.048Z,89.58
2023-05-15T03:16:45.863Z,89.13
2023-05-15T03:19:12.691Z,88.60
2023-05-15T03:21:39.493Z,88.22
2023-05-15T03:24:06.603Z,87.83
2023-05-15T03:26:33.334Z,87.45
2023-05-15T03:29:00.989Z,87.05
2023-05-15T03:31:27.794Z,86.84
2023-05-15T03:33:54.532Z,86.12
2023-05-15T03:36:22.585Z,84.79
2023-05-15T03:38:49.638Z,83.19
2023-05-15T03:41:16.333Z,81.70
2023-05-15T03:43:43.085Z,80.00
2023-05-15T03:46:09.761Z,78.24
2023-05-15T03:48:40.217Z,75.90
2023-05-15T03:51:07.024Z,73.19
2023-05-15T03:53:33.697Z,70.63
2023-05-15T03:56:00.449Z,67.74
2023-05-15T03:58:27.226Z,65.83
2023-05-15T04:00:54.315Z,65.11
2023-05-15T04:03:21.088Z,65.36
2023-05-15T04:05:50.049Z,65.58
2023-05-15T04:08:16.965Z,65.87
2023-05-15T04:10:43.657Z,66.33
2023-05-15T04:13:10.387Z,66.92
2023-05-15T04:15:37.261Z,67.70
2023-05-15T04:18:04.008Z,67.77
2023-05-15T04:20:31.077Z,68.19
2023-05-15T04:22:57.751Z,68.08
2023-05-15T04:25:25.003Z,68.19
2023-05-15T04:27:51.965Z,68.62
2023-05-15T04:30:18.836Z,69.17
2023-05-15T04:32:45.886Z,68.82
2023-05-15T04:35:13.712Z,68.45
2023-05-15T04:37:41.304Z,67.31
2023-05-15T04:40:09.024Z,66.48
2023-05-15T04:42:38.387Z,66.09
2023-05-15T04:45:06.425Z,66.20
2023-05-15T04:47:33.208Z,67.21
2023-05-15T04:49:59.959Z,68.29
2023-05-15T04:52:26.793Z,68.69
2023-05-15T04:54:55.572Z,69.39
2023-05-15T04:57:22.674Z,69.77
2023-05-15T04:59:49.578Z,69.84
2023-05-15T05:02:16.376Z,70.13
2023-05-15T05:04:43.812Z,70.92
2023-05-15T05:07:10.583Z,71.77
2023-05-15T05:09:39.163Z,72.13
2023-05-15T05:12:07.617Z,71.61
2023-05-15T05:14:34.398Z,68.82
2023-05-15T05:17:01.160Z,66.03
2023-05-15T05:19:31.015Z,64.49
2023-05-15T05:22:01.322Z,62.44
2023-05-15T05:24:28.554Z,60.21
2023-05-15T05:26:58.172Z,59.07
2023-05-15T05:29:25.233Z,57.91
2023-05-15T05:31:52.338Z,58.50
2023-05-15T05:34:19.699Z,59.77
2023-05-15T05:36:46.588Z,60.52
2023-05-15T05:39:13.344Z,60.99
2023-05-15T05:41:40.252Z,59.41
2023-05-15T05:44:06.993Z,56.44
2023-05-15T05:46:33.820Z,51.61
2023-05-15T05:49:00.616Z,47.89
2023-05-15T05:51:27.337Z,44.51
2023-05-15T05:53:54.020Z,42.53
2023-05-15T05:56:21.768Z,40.81
2023-05-15T05:58:48.509Z,38.34
2023-05-15T06:01:15.212Z,37.54
2023-05-15T06:03:43.169Z,36.96
2023-05-15T06:06:09.997Z,38.24
2023-05-15T06:08:36.791Z,39.85
2023-05-15T06:11:03.870Z,41.50
2023-05-15T06:13:30.547Z,42.33
2023-05-15T06:15:57.313Z,41.71
2023-05-15T06:18:24.458Z,41.24
2023-05-15T06:20:51.828Z,39.87
2023-05-15T06:23:18.550Z,38.50
2023-05-15T06:25:45.329Z,37.25
2023-05-15T06:28:12.023Z,36.72
2023-05-15T06:30:38.735Z,36.28
2023-05-15T06:33:05.786Z,36.58
2023-05-15T06:35:32.558Z,37.22
2023-05-15T06:37:59.236Z,38.18
2023-05-15T06:40:26.293Z,39.21
2023-05-15T06:42:53.261Z,40.01
2023-05-15T06:45:19.997Z,40.29
2023-05-15T06:47:46.785Z,40.57
2023-05-15T06:50:13.533Z,39.74
2023-05-15T06:52:40.385Z,38.44
2023-05-15T06:55:07.368Z,37.18
2023-05-15T06:57:34.428Z,35.90
2023-05-15T07:00:01.160Z,36.76
2023-05-15T07:02:27.953Z,36.68
2023-05-15T07:04:54.801Z,36.69
2023-05-15T07:07:21.522Z,36.89
2023-05-15T07:09:48.654Z,38.19
2023-05-15T07:12:15.803Z,37.17
2023-05-15T07:14:42.618Z,37.87
2023-05-15T07:17:09.514Z,38.88
2023-05-15T07:19:36.409Z,39.13
2023-05-15T07:22:03.639Z,38.65
2023-05-15T07:24:30.642Z,38.90
2023-05-15T07:26:58.856Z,38.81
2023-05-15T07:29:26.196Z,39.13
2023-05-15T07:31:53.401Z,38.69
2023-05-15T07:34:20.232Z,38.16
2023-05-15T07:36:46.925Z,36.02
2023-05-15T07:39:13.931Z,35.06
2023-05-15T07:41:40.876Z,35.22
2023-05-15T07:44:07.743Z,35.86
2023-05-15T07:46:35.082Z,35.48
2023-05-15T07:49:02.037Z,34.95
2023-05-15T07:51:28.866Z,35.26
2023-05-15T07:53:55.793Z,35.51
2023-05-15T07:56:22.497Z,36.18
2023-05-15T07:58:49.266Z,35.90
2023-05-15T08:01:16.146Z,33.33
2023-05-15T08:03:42.952Z,31.85
2023-05-15T08:06:09.835Z,30.13
2023-05-15T08:08:36.610Z,29.78
2023-05-15T08:11:03.337Z,28.38
2023-05-15T08:13:30.050Z,27.31
2023-05-15T08:15:57.122Z,27.13
2023-05-15T08:18:23.879Z,27.64
2023-05-15T08:20:50.612Z,28.52
2023-05-15T08:23:17.322Z,29.14
2023-05-15T08:25:44.120Z,29.09
2023-05-15T08:28:11.085Z,29.39
2023-05-15T08:30:37.983Z,29.84
2023-05-15T08:33:04.884Z,29.91
2023-05-15T08:35:31.677Z,30.07
2023-05-15T08:37:59.099Z,30.76
2023-05-15T08:43:03.892Z,31.83
2023-05-15T08:45:30.755Z,32.30
2023-05-15T08:47:57.658Z,31.81
2023-05-15T08:50:24.445Z,30.97
2023-05-15T08:52:51.548Z,30.10
2023-05-15T08:55:18.268Z,29.51
2023-05-15T08:57:45.234Z,29.04
2023-05-15T09:00:14.901Z,28.30
2023-05-15T09:02:42.825Z,28.40
2023-05-15T09:05:09.993Z,28.47
2023-05-15T09:07:38.444Z,28.32
2023-05-15T09:10:06.207Z,28.07
2023-05-15T09:12:33.670Z,28.04
2023-05-15T09:15:13.672Z,28.05
2023-05-15T09:17:40.528Z,27.84
2023-05-15T09:20:08.560Z,27.61
2023-05-15T09:22:36.043Z,28.25
2023-05-15T09:25:04.286Z,29.10
2023-05-15T09:27:31.060Z,28.74
2023-05-15T09:30:08.416Z,27.07
2023-05-15T09:32:37.300Z,26.20
2023-05-15T09:35:04.640Z,26.07
2023-05-15T09:37:32.541Z,25.84
2023-05-15T09:40:10.037Z,25.96
2023-05-15T09:42:36.918Z,25.92
2023-05-15T09:45:04.009Z,25.41
2023-05-15T09:47:30.986Z,23.68
2023-05-15T09:49:57.974Z,24.00
2023-05-15T09:52:24.758Z,24.36
2023-05-15T09:54:51.522Z,25.47
2023-05-15T09:57:21.391Z,26.13
2023-05-15T09:59:48.413Z,25.87
2023-05-15T10:02:32.196Z,25.07
2023-05-15T10:04:59.096Z,24.39
2023-05-15T10:07:28.255Z,24.03
2023-05-15T10:09:55.512Z,24.09
2023-05-15T10:12:22.592Z,24.48
2023-05-15T10:14:49.515Z,25.89
2023-05-15T10:17:16.299Z,25.65
2023-05-15T10:19:56.770Z,26.73
2023-05-15T10:22:24.849Z,25.73
2023-05-15T10:25:09.029Z,25.40
2023-05-15T10:27:36.662Z,25.16
2023-05-15T10:30:04.096Z,24.93
2023-05-15T10:32:30.874Z,25.62
2023-05-15T10:34:57.755Z,25.80
2023-05-15T10:37:24.496Z,25.59
2023-05-15T10:39:51.221Z,25.52
2023-05-15T10:42:18.222Z,25.98
2023-05-15T10:44:44.990Z,27.07
2023-05-15T10:47:11.844Z,27.21
2023-05-15T10:49:39.025Z,26.93
2023-05-15T10:52:06.217Z,26.67
2023-05-15T10:54:33.263Z,27.58
2023-05-15T10:57:00.335Z,27.45
2023-05-15T10:59:34.794Z,27.02
2023-05-15T11:02:19.329Z,27.02
2023-05-15T11:04:46.094Z,27.50
2023-05-15T11:07:14.116Z,26.49
2023-05-15T11:09:40.941Z,25.41
2023-05-15T11:12:09.120Z,25.82
2023-05-15T11:14:40.188Z,25.96
2023-05-15T11:17:16.530Z,25.68
2023-05-15T11:19:49.391Z,25.55
2023-05-15T11:22:21.044Z,25.33
2023-05-15T11:24:54.005Z,25.55
2023-05-15T11:27:25.127Z,25.47
2023-05-15T11:30:23.363Z,25.99
2023-05-15T11:32:59.417Z,25.90
2023-05-15T11:35:30.088Z,25.95
2023-05-15T11:38:03.489Z,25.71
2023-05-15T11:40:31.614Z,25.89
2023-05-15T11:43:05.765Z,26.24
2023-05-15T11:45:34.644Z,26.00
2023-05-15T11:48:02.551Z,26.35
2023-05-15T11:50:30.808Z,25.70
2023-05-15T11:52:57.643Z,26.15
2023-05-15T11:55:24.397Z,26.24
2023-05-15T11:57:51.181Z,26.79
2023-05-15T12:00:18.014Z,27.14
2023-05-15T12:02:44.811Z,26.80
2023-05-15T12:05:12.088Z,26.76
2023-05-15T12:07:40.762Z,26.60
2023-05-15T12:10:09.384Z,26.82
2023-05-15T12:12:37.073Z,26.79
2023-05-15T12:15:05.679Z,26.75
2023-05-15T12:17:33.274Z,26.18
2023-05-15T12:20:00.153Z,26.28
2023-05-15T12:22:26.836Z,26.34
2023-05-15T12:24:53.567Z,26.45
2023-05-15T12:27:20.368Z,26.96
2023-05-15T12:29:47.020Z,27.09
2023-05-15T12:32:13.850Z,27.66
2023-05-15T12:34:41.338Z,27.84
2023-05-15T12:37:12.606Z,28.08
2023-05-15T12:40:00.685Z,27.48
2023-05-15T12:42:27.482Z,28.02
2023-05-15T12:44:54.901Z,28.27
2023-05-15T12:47:25.688Z,28.51
2023-05-15T12:49:57.180Z,28.64
2023-05-15T12:52:24.148Z,29.09
2023-05-15T12:54:50.898Z,29.25
2023-05-15T12:57:17.575Z,29.20
2023-05-15T12:59:44.331Z,29.29
2023-05-15T13:02:11.572Z,29.52
2023-05-15T13:04:38.339Z,29.68
2023-05-15T13:07:05.321Z,29.47
2023-05-15T13:09:33.353Z,29.76
2023-05-15T13:12:02.531Z,30.04
2023-05-15T13:14:32.504Z,30.13
2023-05-15T13:17:01.183Z,29.58
2023-05-15T13:19:27.842Z,29.61
2023-05-15T13:21:54.540Z,29.76
2023-05-15T13:24:21.304Z,30.01
2023-05-15T13:26:48.019Z,29.61
2023-05-15T13:29:14.695Z,29.62
2023-05-15T13:31:41.544Z,29.68
2023-05-15T13:34:08.250Z,29.30
2023-05-15T13:36:34.994Z,28.87
2023-05-15T13:39:01.744Z,28.99
2023-05-15T13:41:28.518Z,29.62
2023-05-15T13:43:55.647Z,29.75
2023-05-15T13:46:22.367Z,29.67
2023-05-15T13:48:49.116Z,29.57
2023-05-15T13:51:15.808Z,29.74
2023-05-15T13:53:42.512Z,29.27
2023-05-15T13:56:09.217Z,29.46
2023-05-15T13:58:36.458Z,29.22
2023-05-15T14:01:05.864Z,29.18
2023-05-15T14:03:32.894Z,29.00
2023-05-15T14:05:59.930Z,29.41
2023-05-15T14:08:29.418Z,29.37
2023-05-15T14:10:56.123Z,29.21
2023-05-15T14:13:23.645Z,29.38
2023-05-15T14:15:50.544Z,29.35
2023-05-15T14:18:17.242Z,29.75
2023-05-15T14:20:43.940Z,29.44
2023-05-15T14:23:10.730Z,29.17
2023-05-15T14:25:37.426Z,29.53
2023-05-15T14:28:04.115Z,29.82
2023-05-15T14:30:30.912Z,30.14
2023-05-15T14:32:57.749Z,30.49
2023-05-15T14:35:24.623Z,30.45
2023-05-15T14:37:51.454Z,30.12
2023-05-15T14:40:18.231Z,30.54
2023-05-15T14:42:44.921Z,30.26
2023-05-15T14:45:11.771Z,30.15
2023-05-15T14:47:38.533Z,30.43
2023-05-15T14:50:06.187Z,30.03
2023-05-15T14:52:32.955Z,30.29
2023-05-15T14:55:08.610Z,30.03
2023-05-15T14:57:36.478Z,30.08
2023-05-15T15:00:04.735Z,30.52
2023-05-15T15:02:31.701Z,30.66
2023-05-15T15:04:58.606Z,30.70
2023-05-15T15:07:28.857Z,30.57
2023-05-15T15:09:55.560Z,31.11
2023-05-15T15:12:22.433Z,30.98
2023-05-15T15:14:49.120Z,30.14
2023-05-15T15:17:15.856Z,30.26
2023-05-15T15:19:42.710Z,30.42
2023-05-15T15:22:09.431Z,30.59
2023-05-15T15:24:36.112Z,30.70
2023-05-15T15:27:02.867Z,30.72
2023-05-15T15:29:29.551Z,30.70
2023-05-15T15:31:56.283Z,31.04
2023-05-15T15:34:23.004Z,31.48
2023-05-15T15:36:49.684Z,31.64
2023-05-15T15:39:16.550Z,31.68
2023-05-15T15:41:43.240Z,31.86
2023-05-15T15:44:09.921Z,32.19
2023-05-15T15:46:36.630Z,32.50
2023-05-15T15:49:04.638Z,32.89
2023-05-15T15:51:33.244Z,33.02
2023-05-15T15:53:59.952Z,33.51
2023-05-15T15:56:27.050Z,33.95
2023-05-15T15:58:53.749Z,34.17
2023-05-15T16:01:21.530Z,34.38
2023-05-15T16:03:48.382Z,34.41
2023-05-15T16:06:15.121Z,34.27
2023-05-15T16:08:41.893Z,34.44
2023-05-15T16:11:08.765Z,34.63
2023-05-15T16:13:35.432Z,34.59
2023-05-15T16:16:02.138Z,34.91
2023-05-15T16:18:28.916Z,35.16
2023-05-15T16:20:55.872Z,35.37
2023-05-15T16:23:22.773Z,35.53
2023-05-15T16:25:49.476Z,35.66
2023-05-15T16:28:16.239Z,35.94
2023-05-15T16:33:12.610Z,36.26
2023-05-15T16:35:39.405Z,36.47
2023-05-15T16:38:06.106Z,36.32
2023-05-15T16:40:32.885Z,36.55
2023-05-15T16:42:59.737Z,36.67
2023-05-15T16:45:26.801Z,36.74
2023-05-15T16:47:54.113Z,37.05
2023-05-15T16:50:20.873Z,37.64
2023-05-15T16:52:48.271Z,37.46
2023-05-15T16:55:16.024Z,37.73
2023-05-15T16:57:43.645Z,37.68
2023-05-15T17:00:11.039Z,37.93
2023-05-15T17:02:38.146Z,37.81
2023-05-15T17:05:05.960Z,38.09
2023-05-15T17:07:33.835Z,38.08
2023-05-15T17:10:00.679Z,38.04
2023-05-15T17:12:27.564Z,38.25
2023-05-15T17:14:54.353Z,38.37
2023-05-15T17:17:21.237Z,38.35
2023-05-15T17:19:48.018Z,38.66
2023-05-15T17:22:14.966Z,38.78
2023-05-15T17:24:50.805Z,38.91
2023-05-15T17:27:18.817Z,39.12
2023-05-15T17:29:45.673Z,39.17
2023-05-15T17:32:12.617Z,39.31
2023-05-15T17:34:39.567Z,39.48
2023-05-15T17:37:06.374Z,39.53
2023-05-15T17:39:33.116Z,39.56
2023-05-15T17:42:00.181Z,39.51
2023-05-15T17:44:29.692Z,39.80
2023-05-15T17:46:59.917Z,39.91
2023-05-15T17:49:26.817Z,39.71
2023-05-15T17:51:53.879Z,39.74
2023-05-15T17:54:20.780Z,39.86
2023-05-15T17:56:48.033Z,39.94
2023-05-15T17:59:14.903Z,39.91
2023-05-15T18:01:41.930Z,40.00
2023-05-15T18:04:09.071Z,40.11
2023-05-15T18:06:36.267Z,40.24
2023-05-15T18:09:03.328Z,40.38
2023-05-15T18:11:30.086Z,40.63
2023-05-15T18:13:56.939Z,40.76
2023-05-15T18:16:23.868Z,41.14
2023-05-15T18:18:52.171Z,41.11
2023-05-15T18:21:19.206Z,41.32
2023-05-15T18:23:46.103Z,41.57
2023-05-15T18:26:12.841Z,41.68
2023-05-15T18:28:39.648Z,41.86
2023-05-15T18:31:06.593Z,42.09
2023-05-15T18:33:33.777Z,42.20
2023-05-15T18:36:00.674Z,42.03
2023-05-15T18:38:27.500Z,42.31
2023-05-15T18:40:54.191Z,42.33
2023-05-15T18:43:21.571Z,42.34
2023-05-15T18:45:48.618Z,42.38
2023-05-15T18:48:15.950Z,42.59
2023-05-15T18:50:43.373Z,42.63
2023-05-15T18:53:10.201Z,42.76
2023-05-15T18:55:36.985Z,42.90
2023-05-15T18:58:03.808Z,42.95
2023-05-15T19:03:00.463Z,43.26
2023-05-15T19:05:27.713Z,43.63
2023-05-15T19:07:54.548Z,43.63
2023-05-15T19:10:21.415Z,43.90
2023-05-15T19:12:48.583Z,44.13
2023-05-15T19:15:20.168Z,44.11
2023-05-15T19:17:48.347Z,44.45
2023-05-15T19:20:15.287Z,44.33
2023-05-15T19:22:42.606Z,44.35
2023-05-15T19:25:10.927Z,44.65
2023-05-15T19:27:37.899Z,44.75
2023-05-15T19:30:07.651Z,44.83
2023-05-15T19:32:34.686Z,45.05
2023-05-15T19:35:01.745Z,45.05
2023-05-15T19:37:28.508Z,45.11
2023-05-15T19:39:55.418Z,45.35
2023-05-15T19:42:22.537Z,45.64
2023-05-15T19:44:49.679Z,45.81
2023-05-15T19:47:16.433Z,45.99
2023-05-15T19:49:43.136Z,46.19
2023-05-15T19:52:09.829Z,46.45
2023-05-15T19:54:36.609Z,46.47
2023-05-15T19:57:03.410Z,46.86
2023-05-15T19:59:30.161Z,47.10
2023-05-15T20:01:57.046Z,47.36
2023-05-15T20:04:23.815Z,47.60
2023-05-15T20:06:50.629Z,47.87
2023-05-15T20:09:17.424Z,48.34
2023-05-15T20:11:45.278Z,48.71
2023-05-15T20:14:12.920Z,49.17
2023-05-15T20:16:39.672Z,49.37
2023-05-15T20:19:06.572Z,49.51
2023-05-15T20:21:33.865Z,49.59
2023-05-15T20:24:00.629Z,49.75
2023-05-15T20:26:27.538Z,49.52
2023-05-15T20:28:54.245Z,49.47
2023-05-15T20:31:21.001Z,49.46
2023-05-15T20:33:47.941Z,49.52
2023-05-15T20:36:16.697Z,49.85
2023-05-15T20:38:44.899Z,50.24
2023-05-15T20:41:11.687Z,50.78
2023-05-15T20:43:39.130Z,51.73
2023-05-15T20:46:09.060Z,53.11
2023-05-15T20:48:36.489Z,54.16
2023-05-15T20:51:03.355Z,55.83
2023-05-15T20:53:30.159Z,56.98
2023-05-15T20:55:56.930Z,58.59
2023-05-15T20:58:23.846Z,60.60
2023-05-15T21:00:50.662Z,62.74
2023-05-15T21:03:17.584Z,65.02
2023-05-15T21:05:44.755Z,67.52
2023-05-15T21:08:11.488Z,70.37
2023-05-15T21:10:38.184Z,73.35
2023-05-15T21:13:05.145Z,76.37
2023-05-15T21:15:31.914Z,78.95
2023-05-15T21:17:58.985Z,81.61
2023-05-15T21:20:27.103Z,83.94
2023-05-15T21:22:54.132Z,86.06
2023-05-15T21:25:20.850Z,88.58
2023-05-15T21:27:47.730Z,90.92
2023-05-15T21:30:14.938Z,92.61
2023-05-15T21:32:41.698Z,93.59
2023-05-15T21:35:08.899Z,95.54
2023-05-15T21:37:35.623Z,96.92
2023-05-15T21:40:02.523Z,97.98
2023-05-15T21:42:34.075Z,99.04
2023-05-15T21:45:00.886Z,99.61
2023-05-15T21:47:27.731Z,99.98
2023-05-15T21:49:54.479Z,100.00
2023-05-15T21:52:21.656Z,100.00
2023-05-15T21:54:48.388Z,100.00
2023-05-15T21:57:15.137Z,100.00
2023-05-15T21:59:41.910Z,100.00
2023-05-15T22:02:08.777Z,100.00
2023-05-15T22:04:35.668Z,100.00
2023-05-15T22:07:02.503Z,100.00
2023-05-15T22:09:29.282Z,100.00
2023-05-15T22:11:56.316Z,100.00
2023-05-15T22:14:23.088Z,100.00
2023-05-15T22:16:49.877Z,100.00
2023-05-15T22:19:31.619Z,100.00
2023-05-15T22:21:59.584Z,100.00
2023-05-15T22:24:26.709Z,100.00
2023-05-15T22:26:53.409Z,100.00
2023-05-15T22:29:20.105Z,100.00
2023-05-15T22:31:46.814Z,100.00
2023-05-15T22:34:13.796Z,100.00
2023-05-15T22:36:41.177Z,100.00
2023-05-15T22:39:08.149Z,100.00
2023-05-15T22:41:34.870Z,100.00
2023-05-15T22:44:02.383Z,100.00
2023-05-15T22:46:29.290Z,100.00
2023-05-15T22:48:59.032Z,100.00
2023-05-15T22:51:26.035Z,100.00
2023-05-15T22:53:52.854Z,100.00
2023-05-15T22:56:19.591Z,100.00
2023-05-15T22:58:46.389Z,100.00
2023-05-15T23:01:13.917Z,100.00
2023-05-15T23:03:40.816Z,100.00
2023-05-15T23:06:07.744Z,100.00
2023-05-15T23:08:34.419Z,100.00
2023-05-15T23:11:01.331Z,100.00
2023-05-15T23:13:28.080Z,100.00
2023-05-15T23:15:54.913Z,100.00
2023-05-15T23:18:21.693Z,100.00
2023-05-15T23:20:48.396Z,100.00
2023-05-15T23:23:15.293Z,100.00
2023-05-15T23:25:42.004Z,100.00
2023-05-15T23:28:08.745Z,100.00
2023-05-15T23:30:35.648Z,100.00
2023-05-15T23:33:02.452Z,100.00
2023-05-15T23:35:29.161Z,100.00
2023-05-15T23:37:55.900Z,100.00
2023-05-15T23:40:22.630Z,100.00
2023-05-15T23:42:49.373Z,100.00
2023-05-15T23:45:16.184Z,100.00
2023-05-15T23:47:42.944Z,100.00
2023-05-15T23:50:09.865Z,100.00
2023-05-15T23:52:36.618Z,100.00
2023-05-15T23:55:03.480Z,100.00
2023-05-15T23:57:30.469Z,100.00
2023-05-15T23:59:57.186Z,100.00
